sensor_id;sensor_type;location;lat;lon;timestamp;P1;durP1;ratioP1;P2;durP2;ratioP2
74538;SDS011;66042;51.090;-115.340;2023-10-08T00:01:16;2.60;;;0.40;;
74538;SDS011;66042;51.090;-115.340;2023-10-08T00:03:43;1.10;;;0.40;;
74538;SDS011;66042;51.090;-115.340;2023-10-08T00:06:20;2.30;;;0.40;;
74538;SDS011;66042;51.090;-115.340;2023-10-08T00:08:49;2.70;;;0.60;;
74538;SDS011;66042;51.090;-115.340;2023-10-08T00:11:17;3.70;;;0.40;;
74538;SDS011;66042;51.090;-115.340;2023-10-08T00:13:45;3.60;;;0.40;;
74538;SDS011;66042;51.090;-115.340;2023-10-08T00:16:14;2.70;;;0.40;;
74538;SDS011;66042;51.090;-115.340;2023-10-08T00:18:43;1.00;;;0.40;;
74538;SDS011;66042;51.090;-115.340;2023-10-08T00:21:21;2.10;;;0.40;;
74538;SDS011;66042;51.090;-115.340;2023-10-08T00:23:52;3.10;;;0.50;;
74538;SDS011;66042;51.090;-115.340;2023-10-08T00:26:27;1.90;;;0.30;;
74538;SDS011;66042;51.090;-115.340;2023-10-08T00:29:04;3.50;;;0.70;;
74538;SDS011;66042;51.090;-115.340;2023-10-08T00:31:45;6.50;;;0.70;;
74538;SDS011;66042;51.090;-115.340;2023-10-08T00:34:16;3.60;;;0.90;;
74538;SDS011;66042;51.090;-115.340;2023-10-08T00:36:46;3.40;;;0.40;;
74538;SDS011;66042;51.090;-115.340;2023-10-08T00:39:16;3.10;;;0.90;;
74538;SDS011;66042;51.090;-115.340;2023-10-08T00:41:51;3.10;;;0.80;;
74538;SDS011;66042;51.090;-115.340;2023-10-08T00:44:25;4.20;;;1.00;;
74538;SDS011;66042;51.090;-115.340;2023-10-08T00:47:01;3.10;;;0.70;;
74538;SDS011;66042;51.090;-115.340;2023-10-08T00:49:32;5.50;;;1.40;;
74538;SDS011;66042;51.090;-115.340;2023-10-08T00:52:14;6.00;;;0.90;;
74538;SDS011;66042;51.090;-115.340;2023-10-08T00:54:42;5.80;;;0.80;;
74538;SDS011;66042;51.090;-115.340;2023-10-08T00:57:30;3.60;;;1.20;;
74538;SDS011;66042;51.090;-115.340;2023-10-08T01:00:01;8.20;;;1.10;;
74538;SDS011;66042;51.090;-115.340;2023-10-08T01:02:32;7.00;;;0.80;;
74538;SDS011;66042;51.090;-115.340;2023-10-08T01:05:14;8.90;;;1.10;;
74538;SDS011;66042;51.090;-115.340;2023-10-08T01:07:46;9.50;;;1.20;;
74538;SDS011;66042;51.090;-115.340;2023-10-08T01:10:17;9.00;;;1.10;;
74538;SDS011;66042;51.090;-115.340;2023-10-08T01:12:47;2.70;;;0.70;;
74538;SDS011;66042;51.090;-115.340;2023-10-08T01:15:21;6.70;;;0.90;;
74538;SDS011;66042;51.090;-115.340;2023-10-08T01:17:55;5.80;;;1.20;;
74538;SDS011;66042;51.090;-115.340;2023-10-08T01:20:44;3.60;;;0.90;;
74538;SDS011;66042;51.090;-115.340;2023-10-08T01:23:11;3.70;;;0.80;;
74538;SDS011;66042;51.090;-115.340;2023-10-08T01:25:47;3.00;;;1.00;;
74538;SDS011;66042;51.090;-115.340;2023-10-08T01:28:19;4.20;;;0.80;;
74538;SDS011;66042;51.090;-115.340;2023-10-08T01:30:59;3.70;;;1.10;;
74538;SDS011;66042;51.090;-115.340;2023-10-08T01:33:30;4.60;;;0.80;;
74538;SDS011;66042;51.090;-115.340;2023-10-08T01:36:03;4.30;;;1.20;;
74538;SDS011;66042;51.090;-115.340;2023-10-08T01:38:32;6.40;;;1.00;;
74538;SDS011;66042;51.090;-115.340;2023-10-08T01:40:59;6.00;;;1.20;;
74538;SDS011;66042;51.090;-115.340;2023-10-08T01:43:33;6.10;;;1.30;;
74538;SDS011;66042;51.090;-115.340;2023-10-08T01:46:02;5.90;;;1.20;;
74538;SDS011;66042;51.090;-115.340;2023-10-08T01:48:30;6.20;;;1.50;;
74538;SDS011;66042;51.090;-115.340;2023-10-08T01:51:03;4.50;;;1.50;;
74538;SDS011;66042;51.090;-115.340;2023-10-08T01:53:40;5.90;;;1.60;;
74538;SDS011;66042;51.090;-115.340;2023-10-08T01:56:07;5.10;;;1.20;;
74538;SDS011;66042;51.090;-115.340;2023-10-08T01:58:37;5.30;;;1.30;;
74538;SDS011;66042;51.090;-115.340;2023-10-08T02:01:04;5.70;;;1.10;;
74538;SDS011;66042;51.090;-115.340;2023-10-08T02:03:37;4.80;;;1.60;;
74538;SDS011;66042;51.090;-115.340;2023-10-08T02:06:04;5.20;;;1.60;;
74538;SDS011;66042;51.090;-115.340;2023-10-08T02:08:34;4.40;;;1.30;;
74538;SDS011;66042;51.090;-115.340;2023-10-08T02:11:02;7.50;;;1.80;;
74538;SDS011;66042;51.090;-115.340;2023-10-08T02:13:30;6.70;;;1.40;;
74538;SDS011;66042;51.090;-115.340;2023-10-08T02:15:57;5.70;;;1.70;;
74538;SDS011;66042;51.090;-115.340;2023-10-08T02:18:24;4.00;;;1.30;;
74538;SDS011;66042;51.090;-115.340;2023-10-08T02:20:51;9.70;;;1.70;;
74538;SDS011;66042;51.090;-115.340;2023-10-08T02:23:18;6.80;;;1.80;;
74538;SDS011;66042;51.090;-115.340;2023-10-08T02:25:45;5.00;;;1.60;;
74538;SDS011;66042;51.090;-115.340;2023-10-08T02:28:13;5.80;;;1.90;;
74538;SDS011;66042;51.090;-115.340;2023-10-08T02:30:46;5.70;;;2.10;;
74538;SDS011;66042;51.090;-115.340;2023-10-08T02:33:13;5.70;;;1.90;;
74538;SDS011;66042;51.090;-115.340;2023-10-08T02:35:41;6.40;;;2.10;;
74538;SDS011;66042;51.090;-115.340;2023-10-08T02:38:14;5.40;;;2.00;;
74538;SDS011;66042;51.090;-115.340;2023-10-08T02:40:42;7.10;;;2.00;;
74538;SDS011;66042;51.090;-115.340;2023-10-08T02:43:16;5.20;;;2.70;;
74538;SDS011;66042;51.090;-115.340;2023-10-08T02:45:46;5.90;;;2.50;;
74538;SDS011;66042;51.090;-115.340;2023-10-08T02:48:15;8.20;;;2.00;;
74538;SDS011;66042;51.090;-115.340;2023-10-08T02:50:44;6.80;;;2.30;;
74538;SDS011;66042;51.090;-115.340;2023-10-08T02:53:14;8.10;;;3.30;;
74538;SDS011;66042;51.090;-115.340;2023-10-08T02:55:48;8.00;;;3.00;;
74538;SDS011;66042;51.090;-115.340;2023-10-08T02:58:16;6.60;;;2.80;;
74538;SDS011;66042;51.090;-115.340;2023-10-08T03:00:46;10.10;;;3.30;;
74538;SDS011;66042;51.090;-115.340;2023-10-08T03:03:17;6.40;;;2.70;;
74538;SDS011;66042;51.090;-115.340;2023-10-08T03:05:46;8.10;;;3.10;;
74538;SDS011;66042;51.090;-115.340;2023-10-08T03:08:17;8.40;;;2.80;;
74538;SDS011;66042;51.090;-115.340;2023-10-08T03:10:49;7.30;;;2.80;;
74538;SDS011;66042;51.090;-115.340;2023-10-08T03:13:28;6.50;;;2.50;;
74538;SDS011;66042;51.090;-115.340;2023-10-08T03:15:55;6.30;;;2.40;;
74538;SDS011;66042;51.090;-115.340;2023-10-08T03:18:29;6.10;;;2.50;;
74538;SDS011;66042;51.090;-115.340;2023-10-08T03:21:04;7.00;;;2.40;;
74538;SDS011;66042;51.090;-115.340;2023-10-08T03:23:49;6.60;;;3.00;;
74538;SDS011;66042;51.090;-115.340;2023-10-08T03:26:17;7.60;;;3.00;;
74538;SDS011;66042;51.090;-115.340;2023-10-08T03:29:05;5.90;;;2.90;;
74538;SDS011;66042;51.090;-115.340;2023-10-08T03:31:41;5.60;;;2.60;;
74538;SDS011;66042;51.090;-115.340;2023-10-08T03:34:18;5.90;;;2.20;;
74538;SDS011;66042;51.090;-115.340;2023-10-08T03:36:47;6.60;;;2.80;;
74538;SDS011;66042;51.090;-115.340;2023-10-08T03:39:16;5.60;;;2.40;;
74538;SDS011;66042;51.090;-115.340;2023-10-08T03:41:45;6.90;;;2.70;;
74538;SDS011;66042;51.090;-115.340;2023-10-08T03:44:26;5.10;;;2.00;;
74538;SDS011;66042;51.090;-115.340;2023-10-08T03:46:55;5.40;;;2.10;;
74538;SDS011;66042;51.090;-115.340;2023-10-08T03:49:23;4.10;;;1.70;;
74538;SDS011;66042;51.090;-115.340;2023-10-08T03:51:51;3.40;;;1.70;;
74538;SDS011;66042;51.090;-115.340;2023-10-08T03:54:21;3.40;;;2.00;;
74538;SDS011;66042;51.090;-115.340;2023-10-08T03:57:01;3.80;;;1.50;;
74538;SDS011;66042;51.090;-115.340;2023-10-08T03:59:39;2.50;;;1.00;;
74538;SDS011;66042;51.090;-115.340;2023-10-08T04:02:09;3.20;;;2.00;;
74538;SDS011;66042;51.090;-115.340;2023-10-08T04:04:58;2.10;;;1.20;;
74538;SDS011;66042;51.090;-115.340;2023-10-08T04:07:26;2.60;;;1.30;;
74538;SDS011;66042;51.090;-115.340;2023-10-08T04:10:00;3.00;;;1.60;;
74538;SDS011;66042;51.090;-115.340;2023-10-08T04:12:36;3.30;;;1.30;;
74538;SDS011;66042;51.090;-115.340;2023-10-08T04:15:10;2.80;;;0.70;;
74538;SDS011;66042;51.090;-115.340;2023-10-08T04:17:42;1.30;;;0.70;;
74538;SDS011;66042;51.090;-115.340;2023-10-08T04:20:17;1.90;;;0.70;;
74538;SDS011;66042;51.090;-115.340;2023-10-08T04:23:03;1.90;;;0.70;;
74538;SDS011;66042;51.090;-115.340;2023-10-08T04:25:44;1.30;;;0.60;;
74538;SDS011;66042;51.090;-115.340;2023-10-08T04:28:13;1.00;;;0.50;;
74538;SDS011;66042;51.090;-115.340;2023-10-08T04:30:49;1.30;;;0.50;;
74538;SDS011;66042;51.090;-115.340;2023-10-08T04:33:20;2.40;;;1.10;;
74538;SDS011;66042;51.090;-115.340;2023-10-08T04:35:48;1.00;;;0.30;;
74538;SDS011;66042;51.090;-115.340;2023-10-08T04:38:25;2.00;;;0.80;;
74538;SDS011;66042;51.090;-115.340;2023-10-08T04:40:54;1.00;;;0.50;;
74538;SDS011;66042;51.090;-115.340;2023-10-08T04:43:27;2.10;;;1.10;;
74538;SDS011;66042;51.090;-115.340;2023-10-08T04:45:54;2.40;;;0.70;;
74538;SDS011;66042;51.090;-115.340;2023-10-08T04:48:25;3.20;;;1.30;;
74538;SDS011;66042;51.090;-115.340;2023-10-08T04:50:57;2.00;;;0.50;;
74538;SDS011;66042;51.090;-115.340;2023-10-08T04:53:31;4.10;;;1.60;;
74538;SDS011;66042;51.090;-115.340;2023-10-08T04:56:12;2.70;;;1.10;;
74538;SDS011;66042;51.090;-115.340;2023-10-08T04:58:43;2.40;;;1.20;;
74538;SDS011;66042;51.090;-115.340;2023-10-08T05:01:15;1.30;;;0.70;;
74538;SDS011;66042;51.090;-115.340;2023-10-08T05:03:51;2.00;;;0.60;;
74538;SDS011;66042;51.090;-115.340;2023-10-08T05:06:27;1.60;;;0.50;;
74538;SDS011;66042;51.090;-115.340;2023-10-08T05:09:06;0.90;;;0.50;;
74538;SDS011;66042;51.090;-115.340;2023-10-08T05:11:47;1.50;;;0.50;;
74538;SDS011;66042;51.090;-115.340;2023-10-08T05:14:19;1.50;;;0.50;;
74538;SDS011;66042;51.090;-115.340;2023-10-08T05:17:00;1.20;;;0.40;;
74538;SDS011;66042;51.090;-115.340;2023-10-08T05:19:51;1.80;;;0.40;;
74538;SDS011;66042;51.090;-115.340;2023-10-08T05:22:33;1.40;;;0.60;;
74538;SDS011;66042;51.090;-115.340;2023-10-08T05:25:10;2.60;;;0.40;;
74538;SDS011;66042;51.090;-115.340;2023-10-08T05:27:45;1.40;;;0.40;;
74538;SDS011;66042;51.090;-115.340;2023-10-08T05:30:16;1.10;;;0.50;;
74538;SDS011;66042;51.090;-115.340;2023-10-08T05:33:03;1.30;;;0.50;;
74538;SDS011;66042;51.090;-115.340;2023-10-08T05:35:36;2.30;;;0.70;;
74538;SDS011;66042;51.090;-115.340;2023-10-08T05:38:10;1.80;;;0.60;;
74538;SDS011;66042;51.090;-115.340;2023-10-08T05:41:09;2.20;;;0.60;;
74538;SDS011;66042;51.090;-115.340;2023-10-08T05:43:54;2.10;;;0.50;;
74538;SDS011;66042;51.090;-115.340;2023-10-08T05:46:40;1.40;;;0.60;;
74538;SDS011;66042;51.090;-115.340;2023-10-08T05:49:17;1.60;;;0.60;;
74538;SDS011;66042;51.090;-115.340;2023-10-08T05:51:57;1.60;;;0.80;;
74538;SDS011;66042;51.090;-115.340;2023-10-08T05:54:31;3.90;;;0.70;;
74538;SDS011;66042;51.090;-115.340;2023-10-08T05:57:07;1.80;;;0.50;;
74538;SDS011;66042;51.090;-115.340;2023-10-08T05:59:44;1.50;;;0.50;;
74538;SDS011;66042;51.090;-115.340;2023-10-08T06:02:26;1.30;;;0.40;;
74538;SDS011;66042;51.090;-115.340;2023-10-08T06:04:54;3.00;;;0.70;;
74538;SDS011;66042;51.090;-115.340;2023-10-08T06:07:48;3.00;;;0.60;;
74538;SDS011;66042;51.090;-115.340;2023-10-08T06:10:23;1.00;;;0.40;;
74538;SDS011;66042;51.090;-115.340;2023-10-08T06:12:58;1.30;;;0.50;;
74538;SDS011;66042;51.090;-115.340;2023-10-08T06:15:51;1.30;;;0.40;;
74538;SDS011;66042;51.090;-115.340;2023-10-08T06:18:26;1.20;;;0.40;;
74538;SDS011;66042;51.090;-115.340;2023-10-08T06:20:56;2.00;;;0.40;;
74538;SDS011;66042;51.090;-115.340;2023-10-08T06:23:28;1.00;;;0.40;;
74538;SDS011;66042;51.090;-115.340;2023-10-08T06:26:01;2.60;;;0.50;;
74538;SDS011;66042;51.090;-115.340;2023-10-08T06:28:37;1.70;;;0.60;;
74538;SDS011;66042;51.090;-115.340;2023-10-08T06:31:06;3.30;;;0.60;;
74538;SDS011;66042;51.090;-115.340;2023-10-08T06:33:40;1.60;;;0.50;;
74538;SDS011;66042;51.090;-115.340;2023-10-08T06:36:09;2.00;;;0.50;;
74538;SDS011;66042;51.090;-115.340;2023-10-08T06:38:37;2.40;;;0.60;;
74538;SDS011;66042;51.090;-115.340;2023-10-08T06:41:05;2.00;;;0.60;;
74538;SDS011;66042;51.090;-115.340;2023-10-08T06:43:41;1.00;;;0.50;;
74538;SDS011;66042;51.090;-115.340;2023-10-08T06:46:13;1.60;;;0.50;;
74538;SDS011;66042;51.090;-115.340;2023-10-08T06:48:41;1.00;;;0.50;;
74538;SDS011;66042;51.090;-115.340;2023-10-08T06:51:09;1.00;;;0.50;;
74538;SDS011;66042;51.090;-115.340;2023-10-08T06:53:47;1.20;;;0.50;;
74538;SDS011;66042;51.090;-115.340;2023-10-08T06:56:15;1.10;;;0.50;;
74538;SDS011;66042;51.090;-115.340;2023-10-08T06:58:46;1.00;;;0.50;;
74538;SDS011;66042;51.090;-115.340;2023-10-08T07:01:17;1.20;;;0.50;;
74538;SDS011;66042;51.090;-115.340;2023-10-08T07:03:51;1.00;;;0.40;;
74538;SDS011;66042;51.090;-115.340;2023-10-08T07:06:22;2.40;;;0.60;;
74538;SDS011;66042;51.090;-115.340;2023-10-08T07:08:58;2.60;;;0.60;;
74538;SDS011;66042;51.090;-115.340;2023-10-08T07:11:31;1.40;;;0.60;;
74538;SDS011;66042;51.090;-115.340;2023-10-08T07:14:09;1.80;;;0.60;;
74538;SDS011;66042;51.090;-115.340;2023-10-08T07:16:37;1.80;;;0.40;;
74538;SDS011;66042;51.090;-115.340;2023-10-08T07:19:07;1.70;;;0.60;;
74538;SDS011;66042;51.090;-115.340;2023-10-08T07:21:45;1.20;;;0.50;;
74538;SDS011;66042;51.090;-115.340;2023-10-08T07:24:16;1.50;;;0.50;;
74538;SDS011;66042;51.090;-115.340;2023-10-08T07:26:44;1.90;;;0.60;;
74538;SDS011;66042;51.090;-115.340;2023-10-08T07:29:16;1.80;;;0.60;;
74538;SDS011;66042;51.090;-115.340;2023-10-08T07:31:45;1.40;;;0.60;;
74538;SDS011;66042;51.090;-115.340;2023-10-08T07:34:19;1.50;;;0.50;;
74538;SDS011;66042;51.090;-115.340;2023-10-08T07:36:50;1.60;;;0.40;;
74538;SDS011;66042;51.090;-115.340;2023-10-08T07:39:18;1.60;;;0.70;;
74538;SDS011;66042;51.090;-115.340;2023-10-08T07:42:07;2.60;;;0.50;;
74538;SDS011;66042;51.090;-115.340;2023-10-08T07:44:36;1.30;;;0.40;;
74538;SDS011;66042;51.090;-115.340;2023-10-08T07:47:05;1.80;;;0.60;;
74538;SDS011;66042;51.090;-115.340;2023-10-08T07:49:40;1.30;;;0.50;;
74538;SDS011;66042;51.090;-115.340;2023-10-08T07:52:11;3.60;;;0.50;;
74538;SDS011;66042;51.090;-115.340;2023-10-08T07:54:41;1.20;;;0.60;;
74538;SDS011;66042;51.090;-115.340;2023-10-08T07:57:09;1.80;;;0.70;;
74538;SDS011;66042;51.090;-115.340;2023-10-08T07:59:42;1.70;;;0.70;;
74538;SDS011;66042;51.090;-115.340;2023-10-08T08:02:27;1.40;;;0.40;;
74538;SDS011;66042;51.090;-115.340;2023-10-08T08:04:54;3.70;;;0.50;;
74538;SDS011;66042;51.090;-115.340;2023-10-08T08:07:22;1.20;;;0.40;;
74538;SDS011;66042;51.090;-115.340;2023-10-08T08:09:52;1.10;;;0.50;;
74538;SDS011;66042;51.090;-115.340;2023-10-08T08:12:26;1.30;;;0.60;;
74538;SDS011;66042;51.090;-115.340;2023-10-08T08:14:54;2.70;;;0.50;;
74538;SDS011;66042;51.090;-115.340;2023-10-08T08:17:21;1.30;;;0.50;;
74538;SDS011;66042;51.090;-115.340;2023-10-08T08:19:50;1.30;;;0.40;;
74538;SDS011;66042;51.090;-115.340;2023-10-08T08:22:21;1.70;;;0.60;;
74538;SDS011;66042;51.090;-115.340;2023-10-08T08:24:49;1.10;;;0.60;;
74538;SDS011;66042;51.090;-115.340;2023-10-08T08:27:20;0.90;;;0.40;;
74538;SDS011;66042;51.090;-115.340;2023-10-08T08:29:52;2.40;;;0.60;;
74538;SDS011;66042;51.090;-115.340;2023-10-08T08:32:22;1.10;;;0.50;;
74538;SDS011;66042;51.090;-115.340;2023-10-08T08:34:50;2.40;;;0.70;;
74538;SDS011;66042;51.090;-115.340;2023-10-08T08:37:18;1.10;;;0.40;;
74538;SDS011;66042;51.090;-115.340;2023-10-08T08:39:52;1.30;;;0.60;;
74538;SDS011;66042;51.090;-115.340;2023-10-08T08:42:22;1.80;;;0.40;;
74538;SDS011;66042;51.090;-115.340;2023-10-08T08:44:50;1.20;;;0.50;;
74538;SDS011;66042;51.090;-115.340;2023-10-08T08:47:22;1.00;;;0.60;;
74538;SDS011;66042;51.090;-115.340;2023-10-08T08:49:51;1.10;;;0.50;;
74538;SDS011;66042;51.090;-115.340;2023-10-08T08:52:21;2.00;;;0.60;;
74538;SDS011;66042;51.090;-115.340;2023-10-08T08:54:48;1.20;;;0.60;;
74538;SDS011;66042;51.090;-115.340;2023-10-08T08:57:17;1.40;;;0.50;;
74538;SDS011;66042;51.090;-115.340;2023-10-08T08:59:52;1.30;;;0.50;;
74538;SDS011;66042;51.090;-115.340;2023-10-08T09:02:20;1.20;;;0.60;;
74538;SDS011;66042;51.090;-115.340;2023-10-08T09:04:49;1.20;;;0.50;;
74538;SDS011;66042;51.090;-115.340;2023-10-08T09:07:20;1.70;;;0.50;;
74538;SDS011;66042;51.090;-115.340;2023-10-08T09:09:50;0.90;;;0.40;;
74538;SDS011;66042;51.090;-115.340;2023-10-08T09:12:23;1.00;;;0.50;;
74538;SDS011;66042;51.090;-115.340;2023-10-08T09:14:50;1.90;;;0.70;;
74538;SDS011;66042;51.090;-115.340;2023-10-08T09:17:17;1.80;;;0.40;;
74538;SDS011;66042;51.090;-115.340;2023-10-08T09:19:45;1.50;;;0.80;;
74538;SDS011;66042;51.090;-115.340;2023-10-08T09:22:12;1.60;;;0.50;;
74538;SDS011;66042;51.090;-115.340;2023-10-08T09:24:41;4.50;;;0.70;;
74538;SDS011;66042;51.090;-115.340;2023-10-08T09:27:10;1.60;;;0.70;;
74538;SDS011;66042;51.090;-115.340;2023-10-08T09:29:40;1.10;;;0.50;;
74538;SDS011;66042;51.090;-115.340;2023-10-08T09:32:12;1.10;;;0.40;;
74538;SDS011;66042;51.090;-115.340;2023-10-08T09:34:39;1.10;;;0.50;;
74538;SDS011;66042;51.090;-115.340;2023-10-08T09:37:06;1.60;;;0.60;;
74538;SDS011;66042;51.090;-115.340;2023-10-08T09:39:34;1.40;;;0.50;;
74538;SDS011;66042;51.090;-115.340;2023-10-08T09:42:04;0.90;;;0.40;;
74538;SDS011;66042;51.090;-115.340;2023-10-08T09:44:37;2.10;;;0.60;;
74538;SDS011;66042;51.090;-115.340;2023-10-08T09:47:06;2.40;;;0.30;;
74538;SDS011;66042;51.090;-115.340;2023-10-08T09:49:41;1.40;;;0.50;;
74538;SDS011;66042;51.090;-115.340;2023-10-08T09:52:23;1.20;;;0.70;;
74538;SDS011;66042;51.090;-115.340;2023-10-08T09:55:00;1.90;;;0.60;;
74538;SDS011;66042;51.090;-115.340;2023-10-08T09:57:33;1.00;;;0.40;;
74538;SDS011;66042;51.090;-115.340;2023-10-08T09:59:59;1.60;;;0.60;;
74538;SDS011;66042;51.090;-115.340;2023-10-08T10:02:26;2.30;;;0.60;;
74538;SDS011;66042;51.090;-115.340;2023-10-08T10:04:56;2.10;;;0.50;;
74538;SDS011;66042;51.090;-115.340;2023-10-08T10:07:25;1.50;;;0.40;;
74538;SDS011;66042;51.090;-115.340;2023-10-08T10:09:55;1.40;;;0.60;;
74538;SDS011;66042;51.090;-115.340;2023-10-08T10:12:26;1.20;;;0.40;;
74538;SDS011;66042;51.090;-115.340;2023-10-08T10:14:55;1.30;;;0.50;;
74538;SDS011;66042;51.090;-115.340;2023-10-08T10:17:25;1.20;;;0.50;;
74538;SDS011;66042;51.090;-115.340;2023-10-08T10:19:55;1.10;;;0.70;;
74538;SDS011;66042;51.090;-115.340;2023-10-08T10:22:33;1.50;;;0.50;;
74538;SDS011;66042;51.090;-115.340;2023-10-08T10:25:05;1.20;;;0.50;;
74538;SDS011;66042;51.090;-115.340;2023-10-08T10:30:30;1.40;;;0.60;;
74538;SDS011;66042;51.090;-115.340;2023-10-08T10:33:00;2.10;;;0.50;;
74538;SDS011;66042;51.090;-115.340;2023-10-08T10:35:28;2.00;;;0.60;;
74538;SDS011;66042;51.090;-115.340;2023-10-08T10:37:56;1.20;;;0.40;;
74538;SDS011;66042;51.090;-115.340;2023-10-08T10:40:29;2.70;;;0.50;;
74538;SDS011;66042;51.090;-115.340;2023-10-08T10:43:07;3.30;;;0.60;;
74538;SDS011;66042;51.090;-115.340;2023-10-08T10:45:41;2.50;;;0.50;;
74538;SDS011;66042;51.090;-115.340;2023-10-08T10:48:10;1.60;;;0.50;;
74538;SDS011;66042;51.090;-115.340;2023-10-08T10:50:40;1.30;;;0.50;;
74538;SDS011;66042;51.090;-115.340;2023-10-08T10:53:28;1.20;;;0.40;;
74538;SDS011;66042;51.090;-115.340;2023-10-08T10:55:56;1.30;;;0.50;;
74538;SDS011;66042;51.090;-115.340;2023-10-08T10:58:36;1.00;;;0.50;;
74538;SDS011;66042;51.090;-115.340;2023-10-08T11:01:05;0.90;;;0.40;;
74538;SDS011;66042;51.090;-115.340;2023-10-08T11:03:53;1.50;;;0.40;;
74538;SDS011;66042;51.090;-115.340;2023-10-08T11:06:24;2.90;;;0.70;;
74538;SDS011;66042;51.090;-115.340;2023-10-08T11:08:53;0.80;;;0.50;;
74538;SDS011;66042;51.090;-115.340;2023-10-08T11:11:28;1.40;;;0.40;;
74538;SDS011;66042;51.090;-115.340;2023-10-08T11:13:59;0.80;;;0.40;;
74538;SDS011;66042;51.090;-115.340;2023-10-08T11:16:27;1.00;;;0.40;;
74538;SDS011;66042;51.090;-115.340;2023-10-08T11:18:57;1.00;;;0.40;;
74538;SDS011;66042;51.090;-115.340;2023-10-08T11:21:32;1.40;;;0.60;;
74538;SDS011;66042;51.090;-115.340;2023-10-08T11:24:02;2.00;;;0.50;;
74538;SDS011;66042;51.090;-115.340;2023-10-08T11:26:38;2.20;;;0.40;;
74538;SDS011;66042;51.090;-115.340;2023-10-08T11:29:06;0.80;;;0.40;;
74538;SDS011;66042;51.090;-115.340;2023-10-08T11:31:40;1.30;;;0.50;;
74538;SDS011;66042;51.090;-115.340;2023-10-08T11:34:11;1.20;;;0.50;;
74538;SDS011;66042;51.090;-115.340;2023-10-08T11:36:39;1.40;;;0.60;;
74538;SDS011;66042;51.090;-115.340;2023-10-08T11:39:14;1.30;;;0.40;;
74538;SDS011;66042;51.090;-115.340;2023-10-08T11:42:03;1.20;;;0.60;;
74538;SDS011;66042;51.090;-115.340;2023-10-08T11:44:33;1.10;;;0.50;;
74538;SDS011;66042;51.090;-115.340;2023-10-08T11:47:03;1.10;;;0.60;;
74538;SDS011;66042;51.090;-115.340;2023-10-08T11:49:39;1.10;;;0.40;;
74538;SDS011;66042;51.090;-115.340;2023-10-08T11:52:16;1.10;;;0.50;;
74538;SDS011;66042;51.090;-115.340;2023-10-08T11:54:47;0.80;;;0.30;;
74538;SDS011;66042;51.090;-115.340;2023-10-08T11:57:15;1.50;;;0.60;;
74538;SDS011;66042;51.090;-115.340;2023-10-08T11:59:47;1.10;;;0.40;;
74538;SDS011;66042;51.090;-115.340;2023-10-08T12:02:14;1.50;;;0.50;;
74538;SDS011;66042;51.090;-115.340;2023-10-08T12:04:43;2.00;;;0.50;;
74538;SDS011;66042;51.090;-115.340;2023-10-08T12:07:13;1.40;;;0.40;;
74538;SDS011;66042;51.090;-115.340;2023-10-08T12:09:43;1.60;;;0.50;;
74538;SDS011;66042;51.090;-115.340;2023-10-08T12:12:14;1.80;;;0.40;;
74538;SDS011;66042;51.090;-115.340;2023-10-08T12:14:42;0.90;;;0.40;;
74538;SDS011;66042;51.090;-115.340;2023-10-08T12:17:12;1.00;;;0.50;;
74538;SDS011;66042;51.090;-115.340;2023-10-08T12:19:40;1.40;;;0.50;;
74538;SDS011;66042;51.090;-115.340;2023-10-08T12:22:09;1.60;;;0.40;;
74538;SDS011;66042;51.090;-115.340;2023-10-08T12:24:40;2.10;;;0.50;;
74538;SDS011;66042;51.090;-115.340;2023-10-08T12:27:08;1.30;;;0.50;;
74538;SDS011;66042;51.090;-115.340;2023-10-08T12:29:37;2.60;;;0.40;;
74538;SDS011;66042;51.090;-115.340;2023-10-08T12:32:04;1.10;;;0.40;;
74538;SDS011;66042;51.090;-115.340;2023-10-08T12:34:43;2.50;;;0.60;;
74538;SDS011;66042;51.090;-115.340;2023-10-08T12:37:10;2.10;;;0.60;;
74538;SDS011;66042;51.090;-115.340;2023-10-08T12:39:40;2.30;;;0.30;;
74538;SDS011;66042;51.090;-115.340;2023-10-08T12:42:26;1.00;;;0.60;;
74538;SDS011;66042;51.090;-115.340;2023-10-08T12:44:53;1.00;;;0.50;;
74538;SDS011;66042;51.090;-115.340;2023-10-08T12:47:23;1.30;;;0.40;;
74538;SDS011;66042;51.090;-115.340;2023-10-08T12:49:54;0.90;;;0.50;;
74538;SDS011;66042;51.090;-115.340;2023-10-08T12:52:23;1.40;;;0.60;;
74538;SDS011;66042;51.090;-115.340;2023-10-08T12:54:54;1.20;;;0.50;;
74538;SDS011;66042;51.090;-115.340;2023-10-08T12:57:22;1.00;;;0.50;;
74538;SDS011;66042;51.090;-115.340;2023-10-08T12:59:58;1.10;;;0.50;;
74538;SDS011;66042;51.090;-115.340;2023-10-08T13:02:25;1.40;;;0.70;;
74538;SDS011;66042;51.090;-115.340;2023-10-08T13:04:55;2.00;;;0.50;;
74538;SDS011;66042;51.090;-115.340;2023-10-08T13:07:23;1.60;;;0.50;;
74538;SDS011;66042;51.090;-115.340;2023-10-08T13:09:52;2.30;;;0.60;;
74538;SDS011;66042;51.090;-115.340;2023-10-08T13:12:19;1.50;;;0.50;;
74538;SDS011;66042;51.090;-115.340;2023-10-08T13:14:47;1.90;;;0.50;;
74538;SDS011;66042;51.090;-115.340;2023-10-08T13:17:14;1.40;;;0.40;;
74538;SDS011;66042;51.090;-115.340;2023-10-08T13:19:41;1.40;;;0.40;;
74538;SDS011;66042;51.090;-115.340;2023-10-08T13:22:11;2.20;;;0.60;;
74538;SDS011;66042;51.090;-115.340;2023-10-08T13:24:45;1.10;;;0.60;;
74538;SDS011;66042;51.090;-115.340;2023-10-08T13:27:14;1.10;;;0.40;;
74538;SDS011;66042;51.090;-115.340;2023-10-08T13:29:42;1.90;;;0.60;;
74538;SDS011;66042;51.090;-115.340;2023-10-08T13:32:09;2.30;;;0.50;;
74538;SDS011;66042;51.090;-115.340;2023-10-08T13:34:44;0.70;;;0.40;;
74538;SDS011;66042;51.090;-115.340;2023-10-08T13:37:11;1.10;;;0.50;;
74538;SDS011;66042;51.090;-115.340;2023-10-08T13:39:41;1.40;;;0.50;;
74538;SDS011;66042;51.090;-115.340;2023-10-08T13:42:08;1.30;;;0.60;;
74538;SDS011;66042;51.090;-115.340;2023-10-08T13:44:35;2.50;;;0.50;;
74538;SDS011;66042;51.090;-115.340;2023-10-08T13:47:01;1.40;;;0.50;;
74538;SDS011;66042;51.090;-115.340;2023-10-08T13:49:31;1.60;;;0.60;;
74538;SDS011;66042;51.090;-115.340;2023-10-08T13:51:59;1.70;;;0.70;;
74538;SDS011;66042;51.090;-115.340;2023-10-08T13:54:26;2.00;;;0.50;;
74538;SDS011;66042;51.090;-115.340;2023-10-08T13:56:58;1.50;;;0.70;;
74538;SDS011;66042;51.090;-115.340;2023-10-08T13:59:27;1.10;;;0.40;;
74538;SDS011;66042;51.090;-115.340;2023-10-08T14:01:57;2.10;;;0.60;;
74538;SDS011;66042;51.090;-115.340;2023-10-08T14:04:24;1.40;;;0.40;;
74538;SDS011;66042;51.090;-115.340;2023-10-08T14:06:56;5.10;;;0.80;;
74538;SDS011;66042;51.090;-115.340;2023-10-08T14:09:24;1.50;;;0.50;;
74538;SDS011;66042;51.090;-115.340;2023-10-08T14:11:57;1.30;;;0.50;;
74538;SDS011;66042;51.090;-115.340;2023-10-08T14:14:25;1.70;;;0.60;;
74538;SDS011;66042;51.090;-115.340;2023-10-08T14:16:56;1.40;;;0.80;;
74538;SDS011;66042;51.090;-115.340;2023-10-08T14:19:35;1.70;;;0.50;;
74538;SDS011;66042;51.090;-115.340;2023-10-08T14:22:09;1.20;;;0.50;;
74538;SDS011;66042;51.090;-115.340;2023-10-08T14:24:40;0.90;;;0.50;;
74538;SDS011;66042;51.090;-115.340;2023-10-08T14:27:07;0.90;;;0.40;;
74538;SDS011;66042;51.090;-115.340;2023-10-08T14:29:38;1.30;;;0.50;;
74538;SDS011;66042;51.090;-115.340;2023-10-08T14:32:15;0.90;;;0.50;;
74538;SDS011;66042;51.090;-115.340;2023-10-08T14:34:43;1.10;;;0.50;;
74538;SDS011;66042;51.090;-115.340;2023-10-08T14:37:13;1.00;;;0.50;;
74538;SDS011;66042;51.090;-115.340;2023-10-08T14:39:58;1.60;;;0.60;;